• Join FlightAware (Why Join?)
  • Login
  • US Flag 
12:22AM EDT


 

Airport Tracker/Info


-or-


 

Live Flight TrackerFlight Track Log ✈ EJA929 ✈ 17-May-2013 ✈ KPDK - KCHS

Flight Track Log - Related Links

Times and Time Zones

All times are in EDT time to prevent confusion due to time zone crossing. See the EJA929 flight status page for this flight to view local times or setup timezone preferences in your user account.

Time Position Orientation Groundspeed Altitude Reporting Facility
EDT Latitude Longitude Course Direction KTS MPH feet Rate Location/Type
12:19PM 33.9000 -84.2833 51° Northeast 175 201 2,200  Level Atlanta TRACON
12:20PM 33.9333 -84.2333 51° Northeast 213 245 4,100 2,040 Climbing Atlanta TRACON
12:21PM 33.9333 -84.1667 90° East 228 262 6,300 960 Climbing Atlanta TRACON
12:23PM 33.9069 -84.0114 102° East 252 290 7,000 180 Climbing Atlanta Center
12:24PM 33.8778 -83.9361 115° Southeast 257 296 7,000 540 Level Atlanta Center
12:25PM 33.8506 -83.8561 112° Southeast 251 289 8,100 1,500 Climbing Atlanta Center
12:26PM 33.8231 -83.7786 113° Southeast 264 304 10,000 2,100 Climbing Atlanta Center
12:27PM 33.8083 -83.6714 99° East 300 345 12,300 1,980 Climbing Atlanta Center
12:28PM 33.7953 -83.5464 97° East 344 396 14,000 2,040 Climbing Atlanta Center
12:29PM 33.7947 -83.4239 90° East 373 429 16,400 2,100 Climbing Atlanta Center
12:30PM 33.7858 -83.2914 95° East 391 450 18,200 1,860 Climbing Atlanta Center
12:31PM 33.7764 -83.1592 95° East 391 450 20,200 2,040 Climbing Atlanta Center
12:32PM 33.7669 -83.0142 94° East 398 458 22,300 1,380 Climbing Atlanta Center
12:33PM 33.7594 -82.8694 94° East 418 481 23,000 300 Climbing Atlanta Center
12:34PM 33.7494 -82.7147 94° East 443 510 23,000  Level Atlanta Center
12:35PM 33.7372 -82.5550 95° East 470 541 23,000 300 Level Atlanta Center
12:36PM 33.7228 -82.3928 96° East 481 554 23,600 720 Climbing Atlanta Center
12:38PM 33.6922 -82.1189 98° East 463 533 25,000 480 Climbing Jacksonville Center
12:39PM 33.6453 -81.9644 110° East 469 540 25,000  Level Jacksonville Center
12:40PM 33.5958 -81.8103 111° Southeast 480 552 25,000 -420 Level Jacksonville Center
12:41PM 33.5486 -81.6539 110° East 491 565 24,200 -540 Descending Jacksonville Center
12:42PM 33.5011 -81.5053 111° Southeast 491 565 24,000 -900 Descending Jacksonville Center
12:43PM 33.4556 -81.3614 111° Southeast 481 554 22,400 -2,040 Descending Jacksonville Center
12:44PM 33.4081 -81.2181 112° Southeast 469 540 20,000 -2,340 Descending Jacksonville Center
12:45PM 33.3600 -81.0747 112° Southeast 469 540 17,800 -2,340 Descending Jacksonville Center
12:46PM 33.3161 -80.9389 111° Southeast 461 531 15,400 -2,280 Descending Jacksonville Center
12:47PM 33.2747 -80.8131 111° Southeast 431 496 13,300 -2,100 Descending Jacksonville Center
12:48PM 33.2369 -80.6872 110° East 410 472 11,300 -1,560 Descending Jacksonville Center
12:49PM 33.1972 -80.5717 112° Southeast 394 453 10,300 -1,020 Descending Jacksonville Center
12:50PM 33.1664 -80.4781 111° Southeast 351 404 9,300 -1,260 Descending Jacksonville Center
12:51PM 33.1439 -80.3919 107° East 301 346 7,800 -1,560 Descending Jacksonville Center
12:52PM 33.1317 -80.3056 100° East 270 311 6,300 -1,380 Descending Jacksonville Center
12:53PM 33.1261 -80.2336 95° East 264 304 5,100 -660 Descending Jacksonville Center
12:54PM 33.0908 -80.1528 117° Southeast 251 289 5,000 -780 Descending Jacksonville Center
12:55PM 33.0456 -80.0872 129° Southeast 251 289 3,600 -1,020 Descending Jacksonville Center
12:56PM 33.0314 -80.0111 102° East 239 275 3,000 -600 Descending Jacksonville Center
12:58PM 32.8986 -80.0405 245° Southwest  Level Estimated
01:05PM 32.8986 -80.0405 79° East  Level Estimated
01:06PM 32.8986 -80.0405 79° East  Level Estimated
01:07PM 32.8986 -80.0405 79° East  Level Estimated
01:08PM 32.8986 -80.0405 79° East  Level Estimated